Time;durP1;ratioP1;P1;durP2;ratioP2;P2;SDS_P1;SDS_P2;PMS_P1;PMS_P2;Temp;Humidity;BMP_temperature;BMP_pressure;BME280_temperature;BME280_humidity;BME280_pressure;Samples;Min_cycle;Max_cycle;Signal;HPM_P1;HPM_P2
2022/09/25 00:01:08;;;;;;;22.23;19.90;;;;;;;13.08;100.00;95980.03;5009043;28;102021;-61
2022/09/25 00:03:36;;;;;;;22.10;19.90;;;;;;;13.07;100.00;95973.88;5012249;28;103548;-61
2022/09/25 00:06:08;;;;;;;24.90;22.40;;;;;;;13.05;100.00;95965.38;5008943;28;101978;-61
2022/09/25 00:08:35;;;;;;;23.27;20.87;;;;;;;13.07;100.00;95967.75;5009143;28;104065;-61
2022/09/25 00:11:06;;;;;;;25.43;22.87;;;;;;;13.06;100.00;95966.97;5008695;28;105812;-61
2022/09/25 00:13:34;;;;;;;23.90;21.47;;;;;;;13.04;100.00;95965.63;5009044;28;101852;-61
2022/09/25 00:16:01;;;;;;;24.03;21.53;;;;;;;13.07;100.00;95962.41;5009049;28;106022;-61
2022/09/25 00:21:20;;;;;;;24.93;22.37;;;;;;;13.05;100.00;95959.22;5008917;28;101809;-61
2022/09/25 00:23:47;;;;;;;26.17;23.43;;;;;;;13.08;100.00;95961.34;5008929;28;104062;-61
2022/09/25 00:26:16;;;;;;;28.17;25.10;;;;;;;13.07;100.00;95963.22;5011718;28;105088;-61
2022/09/25 00:28:44;;;;;;;26.53;23.77;;;;;;;13.03;100.00;95964.03;5008937;28;105101;-61
2022/09/25 00:31:14;;;;;;;28.67;24.93;;;;;;;13.01;100.00;95963.50;5008074;28;102755;-61
2022/09/25 00:33:41;;;;;;;25.53;22.93;;;;;;;12.91;100.00;95964.34;5008888;28;101873;-61
2022/09/25 00:36:10;;;;;;;27.33;24.50;;;;;;;12.87;100.00;95963.28;5008789;28;105400;-61
2022/09/25 00:38:38;;;;;;;27.07;24.27;;;;;;;12.81;100.00;95963.59;5009419;28;102680;-61
2022/09/25 00:41:07;;;;;;;24.70;22.20;;;;;;;12.75;100.00;95954.81;5008300;28;102133;-61
2022/09/25 00:43:38;;;;;;;25.17;22.70;;;;;;;12.74;100.00;95949.72;5008790;28;103963;-61
2022/09/25 00:46:11;;;;;;;24.53;22.03;;;;;;;12.69;100.00;95942.56;5007826;28;105182;-61
2022/09/25 00:48:43;;;;;;;23.50;21.17;;;;;;;12.75;100.00;95943.34;5011880;28;101822;-61
2022/09/25 00:51:11;;;;;;;25.60;22.93;;;;;;;12.79;100.00;95937.19;5008002;28;105919;-61
2022/09/25 00:53:40;;;;;;;23.17;20.87;;;;;;;12.76;100.00;95935.06;5008040;28;101924;-61
2022/09/25 00:56:12;;;;;;;21.40;19.30;;;;;;;12.70;100.00;95936.16;5008641;28;105255;-61
2022/09/25 00:58:40;;;;;;;22.07;19.83;;;;;;;12.75;100.00;95938.03;5007707;28;105225;-61
2022/09/25 01:01:08;;;;;;;19.53;17.57;;;;;;;12.71;100.00;95931.63;5008105;28;101979;-61
2022/09/25 01:03:36;;;;;;;20.57;18.67;;;;;;;12.67;100.00;95936.72;5008418;28;105153;-61
2022/09/25 01:06:04;;;;;;;21.10;19.00;;;;;;;12.70;100.00;95935.38;5007721;28;105573;-61
2022/09/25 01:08:32;;;;;;;17.57;15.87;;;;;;;12.71;100.00;95936.97;5007713;28;101935;-61
2022/09/25 01:11:01;;;;;;;20.20;18.20;;;;;;;12.71;100.00;95942.28;5011210;28;105179;-61
2022/09/25 01:13:29;;;;;;;21.00;18.80;;;;;;;12.71;100.00;95936.97;5008236;28;102156;-61
2022/09/25 01:16:03;;;;;;;17.73;16.03;;;;;;;12.60;100.00;95936.19;5008274;28;105180;-61
2022/09/25 01:18:47;;;;;;;17.20;15.50;;;;;;;12.60;100.00;95944.19;5009013;28;102805;-61
2022/09/25 01:21:24;;;;;;;16.10;14.60;;;;;;;12.62;100.00;95944.75;5008233;28;102109;-61
2022/09/25 01:24:11;;;;;;;17.17;15.57;;;;;;;12.59;100.00;95939.94;5007779;28;105137;-61
2022/09/25 01:27:02;;;;;;;17.87;16.17;;;;;;;12.55;100.00;95935.44;5007707;28;105478;-61
2022/09/25 01:29:36;;;;;;;17.43;15.83;;;;;;;12.51;100.00;95940.53;5007922;28;102206;-61
2022/09/25 01:32:12;;;;;;;16.83;15.23;;;;;;;12.55;100.00;95930.09;5010962;28;104847;-61
2022/09/25 01:34:48;;;;;;;17.97;16.27;;;;;;;12.52;100.00;95933.28;5007936;28;101818;-61
2022/09/25 01:37:21;;;;;;;15.60;14.10;;;;;;;12.47;100.00;95926.13;5008009;28;105050;-61
2022/09/25 01:39:56;;;;;;;17.50;15.90;;;;;;;12.43;100.00;95922.41;5007323;28;105348;-61
2022/09/25 01:42:28;;;;;;;17.60;16.00;;;;;;;12.47;100.00;95925.31;5008131;28;102400;-61
2022/09/25 01:45:01;;;;;;;19.47;17.67;;;;;;;12.47;100.00;95927.97;5007934;28;104829;-61
2022/09/25 01:47:30;;;;;;;19.63;17.67;;;;;;;12.51;100.00;95937.03;5006975;28;105060;-61
2022/09/25 01:50:00;;;;;;;18.80;17.00;;;;;;;12.48;100.00;95935.72;5007612;28;101872;-61
2022/09/25 01:52:33;;;;;;;18.77;16.83;;;;;;;12.50;100.00;95930.94;5009673;28;105511;-61
2022/09/25 01:55:07;;;;;;;17.57;15.90;;;;;;;12.50;100.00;95927.44;5015336;28;102875;-61
2022/09/25 01:57:40;;;;;;;16.43;14.87;;;;;;;12.47;100.00;95926.13;5011473;28;105626;-61
2022/09/25 02:00:12;;;;;;;17.53;15.73;;;;;;;12.45;100.00;95932.78;5010304;28;105623;-61
2022/09/25 02:02:48;;;;;;;17.13;15.53;;;;;;;12.47;100.00;95933.31;5010914;28;101993;-61
2022/09/25 02:05:19;;;;;;;19.07;17.17;;;;;;;12.46;100.00;95929.88;5011056;28;105100;-61
2022/09/25 02:07:53;;;;;;;17.60;15.90;;;;;;;12.43;100.00;95929.63;5010738;28;105362;-61
2022/09/25 02:10:25;;;;;;;19.33;17.53;;;;;;;12.38;100.00;95926.97;5010949;28;102042;-61
2022/09/25 02:12:58;;;;;;;19.07;17.27;;;;;;;12.39;100.00;95933.88;5012502;28;102596;-61
2022/09/25 02:15:31;;;;;;;18.10;16.40;;;;;;;12.36;100.00;95929.91;5010285;28;104973;-61
2022/09/25 02:20:50;;;;;;;19.53;17.63;;;;;;;12.39;100.00;95933.88;5010109;28;105210;-61
2022/09/25 02:23:22;;;;;;;17.93;16.23;;;;;;;12.40;100.00;95932.81;5011218;28;102251;-61
2022/09/25 02:25:56;;;;;;;16.83;15.23;;;;;;;12.42;100.00;95936.81;5010904;28;104760;-61
2022/09/25 02:28:23;;;;;;;18.93;17.13;;;;;;;12.40;100.00;95930.16;5010253;28;105041;-61
2022/09/25 02:30:56;;;;;;;16.17;14.63;;;;;;;12.45;100.00;95938.13;5010856;28;101703;-61
2022/09/25 02:33:25;;;;;;;16.90;15.30;;;;;;;12.46;100.00;95929.06;5010670;28;104711;-61
2022/09/25 02:35:52;;;;;;;16.13;14.63;;;;;;;12.47;100.00;95931.47;5011321;28;102581;-61
2022/09/25 02:38:20;;;;;;;15.73;14.30;;;;;;;12.51;100.00;95931.72;5010825;28;102085;-61
2022/09/25 02:40:52;;;;;;;16.57;15.00;;;;;;;12.50;100.00;95930.94;5013219;28;104035;-61
2022/09/25 02:43:33;;;;;;;18.37;16.63;;;;;;;12.50;100.00;95924.78;5010456;28;101979;-61
2022/09/25 02:46:10;;;;;;;16.87;15.20;;;;;;;12.53;100.00;95930.38;5011671;28;104218;-62
2022/09/25 02:48:49;;;;;;;15.90;14.40;;;;;;;12.55;100.00;95924.75;5009690;28;105744;-62
2022/09/25 02:51:25;;;;;;;16.70;15.20;;;;;;;12.54;100.00;95931.94;5010202;28;101865;-61
2022/09/25 02:53:57;;;;;;;18.67;16.87;;;;;;;12.56;100.00;95923.69;5010146;28;102656;-61
2022/09/25 02:56:32;;;;;;;20.40;18.40;;;;;;;12.61;100.00;95926.34;5009980;28;105114;-61
2022/09/25 02:59:06;;;;;;;19.97;18.03;;;;;;;12.59;100.00;95929.25;5010113;28;102141;-61
2022/09/25 03:01:38;;;;;;;20.47;18.47;;;;;;;12.49;100.00;95928.53;5010018;28;105196;-61
2022/09/25 03:04:06;;;;;;;20.00;18.10;;;;;;;12.45;100.00;95922.13;5012841;28;104958;-61
2022/09/25 03:06:33;;;;;;;20.53;18.53;;;;;;;12.50;100.00;95919.44;5010079;28;104855;-61
2022/09/25 03:09:01;;;;;;;20.80;18.60;;;;;;;12.52;100.00;95918.09;5009503;28;105090;-61
2022/09/25 03:11:28;;;;;;;18.50;16.77;;;;;;;12.55;100.00;95911.44;5010025;28;102120;-61
2022/09/25 03:13:57;;;;;;;19.13;17.23;;;;;;;12.57;100.00;95915.41;5010186;28;104738;-61
2022/09/25 03:16:32;;;;;;;20.30;18.30;;;;;;;12.55;100.00;95906.09;5010384;28;103066;-61
2022/09/25 03:19:01;;;;;;;19.90;17.87;;;;;;;12.56;100.00;95910.34;5010053;28;102114;-62
2022/09/25 03:21:28;;;;;;;22.27;19.87;;;;;;;12.54;100.00;95910.63;5009813;28;105458;-61
2022/09/25 03:23:56;;;;;;;23.17;20.30;;;;;;;12.51;100.00;95911.19;5009405;28;105893;-61
2022/09/25 03:26:24;;;;;;;22.23;19.70;;;;;;;12.54;100.00;95907.94;5013383;28;101832;-61
2022/09/25 03:28:51;;;;;;;22.17;19.80;;;;;;;12.55;100.00;95900.75;5009157;28;105478;-61
2022/09/25 03:31:19;;;;;;;22.97;20.47;;;;;;;12.57;100.00;95896.75;5009576;28;101887;-61
2022/09/25 03:33:46;;;;;;;24.80;20.87;;;;;;;12.59;100.00;95899.94;5009695;28;104788;-61
2022/09/25 03:36:17;;;;;;;23.90;20.50;;;;;;;12.58;100.00;95894.84;5009191;28;104167;-61
2022/09/25 03:38:45;;;;;;;22.30;19.63;;;;;;;12.56;100.00;95894.34;5009533;28;101894;-61
2022/09/25 03:41:12;;;;;;;23.13;20.57;;;;;;;12.56;100.00;95895.16;5009692;28;104857;-61
2022/09/25 03:43:42;;;;;;;44.93;23.13;;;;;;;12.57;100.00;95893.28;5008812;28;105325;-61
2022/09/25 03:46:11;;;;;;;28.47;23.03;;;;;;;12.51;100.00;95900.50;5012813;28;101901;-61
2022/09/25 03:48:39;;;;;;;30.60;24.80;;;;;;;12.50;100.00;95892.78;5010455;28;103095;-61
2022/09/25 03:51:08;;;;;;;33.77;25.33;;;;;;;12.43;100.00;95898.41;5010962;28;101915;-61
2022/09/25 03:53:37;;;;;;;57.93;28.70;;;;;;;12.43;100.00;95898.41;5010137;28;102609;-62
2022/09/25 03:56:07;;;;;;;33.00;26.23;;;;;;;12.48;100.00;95894.94;5008970;28;104591;-61
2022/09/25 03:58:34;;;;;;;34.27;27.07;;;;;;;12.48;100.00;95895.72;5009058;28;101942;-61
2022/09/25 04:01:02;;;;;;;34.70;28.03;;;;;;;12.50;100.00;95890.91;5009146;28;105353;-61
2022/09/25 04:03:31;;;;;;;31.60;24.67;;;;;;;12.51;100.00;95891.69;5025798;28;103889;-61
2022/09/25 04:06:00;;;;;;;31.37;25.30;;;;;;;12.54;100.00;95893.84;5008989;28;101771;-61
2022/09/25 04:08:28;;;;;;;36.97;27.23;;;;;;;12.44;100.00;95896.53;5011985;28;105408;-61
2022/09/25 04:10:59;;;;;;;38.13;26.60;;;;;;;12.33;100.00;95898.44;5009059;28;102170;-61
2022/09/25 04:13:28;;;;;;;29.37;24.63;;;;;;;12.37;100.00;95894.16;5010670;28;102856;-61
2022/09/25 04:15:56;;;;;;;37.13;27.90;;;;;;;12.37;100.00;95883.50;5009057;28;102589;-61
2022/09/25 04:18:23;;;;;;;31.73;25.73;;;;;;;12.38;100.00;95881.63;5008770;28;102007;-61
2022/09/25 04:20:50;;;;;;;27.70;23.63;;;;;;;12.40;100.00;95882.16;5009041;28;104789;-61
2022/09/25 04:23:17;;;;;;;45.80;25.80;;;;;;;12.38;100.00;95873.63;5008539;28;104055;-61
2022/09/25 04:25:44;;;;;;;26.27;23.47;;;;;;;12.34;100.00;95892.06;5010401;28;101844;-61
2022/09/25 04:28:13;;;;;;;29.23;24.70;;;;;;;12.34;100.00;95885.91;5009096;28;103578;-61
2022/09/25 04:30:40;;;;;;;35.70;27.10;;;;;;;12.35;100.00;95888.31;5011459;28;105572;-61
2022/09/25 04:35:51;;;;;;;27.27;24.03;;;;;;;12.34;100.00;95888.59;5008348;28;104984;-61
2022/09/25 04:38:18;;;;;;;34.07;26.30;;;;;;;12.29;100.00;95891.25;5008822;28;101965;-61
2022/09/25 04:40:45;;;;;;;29.50;24.63;;;;;;;12.22;100.00;95894.22;5010077;28;102527;-61
2022/09/25 04:43:14;;;;;;;27.77;24.10;;;;;;;12.18;100.00;95895.84;5007973;28;105369;-61
2022/09/25 04:45:41;;;;;;;30.97;25.37;;;;;;;12.06;100.00;95903.34;5008561;28;101907;-61
2022/09/25 04:48:08;;;;;;;32.03;24.40;;;;;;;12.06;100.00;95910.53;5008572;28;103698;-61
2022/09/25 04:50:35;;;;;;;25.97;23.27;;;;;;;11.93;100.00;95913.78;5009023;28;102541;-61
2022/09/25 04:53:02;;;;;;;26.93;23.90;;;;;;;11.83;100.00;95913.78;5011578;28;101883;-61
2022/09/25 04:55:29;;;;;;;26.50;23.70;;;;;;;11.86;100.00;95911.38;5007945;28;105834;-61
2022/09/25 04:57:59;;;;;;;26.53;23.83;;;;;;;11.83;100.00;95911.13;5008497;28;101902;-61
2022/09/25 05:00:29;;;;;;;28.13;25.13;;;;;;;11.80;100.00;95917.78;5008092;28;104846;-61
2022/09/25 05:02:56;;;;;;;33.90;25.83;;;;;;;11.82;100.00;95920.97;4991412;28;105322;-61
2022/09/25 05:05:26;;;;;;;27.73;24.03;;;;;;;11.85;100.00;95927.63;5009520;28;101867;-61
2022/09/25 05:07:54;;;;;;;27.63;24.50;;;;;;;11.83;100.00;95927.13;5008290;28;105362;-61
2022/09/25 05:10:22;;;;;;;26.63;23.77;;;;;;;11.86;100.00;95929.22;5007711;28;105252;-61
2022/09/25 05:12:55;;;;;;;29.27;23.70;;;;;;;11.93;100.00;95917.22;5008305;28;102058;-61
2022/09/25 05:15:22;;;;;;;26.70;23.77;;;;;;;11.98;100.00;95916.41;5011178;28;105382;-61
2022/09/25 05:17:52;;;;;;;25.27;22.67;;;;;;;12.00;100.00;95909.75;5008142;28;101873;-61
2022/09/25 05:20:19;;;;;;;25.77;23.17;;;;;;;12.09;100.00;95913.47;5008430;28;104769;-61
2022/09/25 05:22:46;;;;;;;25.27;22.57;;;;;;;12.14;100.00;95909.97;5007363;28;105439;-61
2022/09/25 05:25:13;;;;;;;24.93;22.43;;;;;;;12.18;100.00;95909.19;5007928;28;102007;-61
2022/09/25 05:27:40;;;;;;;25.87;23.20;;;;;;;12.23;100.00;95905.69;5007969;28;104993;-61
2022/09/25 05:30:10;;;;;;;25.30;22.63;;;;;;;12.20;100.00;95917.69;5007493;28;105506;-61
2022/09/25 05:32:37;;;;;;;26.67;23.87;;;;;;;12.17;100.00;95915.59;5008043;28;101928;-61
2022/09/25 05:35:08;;;;;;;27.13;24.27;;;;;;;12.28;100.00;95900.34;5007921;28;104909;-61
2022/09/25 05:37:34;;;;;;;26.13;23.53;;;;;;;12.33;100.00;95913.66;5011629;28;101828;-61
2022/09/25 05:40:02;;;;;;;25.67;22.97;;;;;;;12.34;100.00;95907.25;5007884;28;103778;-61
2022/09/25 05:42:31;;;;;;;25.47;22.57;;;;;;;12.30;100.00;95912.31;5007142;28;105968;-61
2022/09/25 05:44:58;;;;;;;26.07;23.27;;;;;;;12.37;100.00;95909.38;5008016;28;102062;-61
2022/09/25 05:47:25;;;;;;;29.17;24.20;;;;;;;12.36;100.00;95911.25;5007564;28;105474;-61
2022/09/25 05:49:52;;;;;;;29.20;24.57;;;;;;;12.39;100.00;95901.91;5006947;28;105261;-61
2022/09/25 05:52:21;;;;;;;26.97;22.93;;;;;;;12.53;100.00;95908.25;5007728;28;101957;-61
2022/09/25 05:54:48;;;;;;;28.60;25.00;;;;;;;12.53;100.00;95909.03;5007519;28;104810;-61
2022/09/25 05:57:15;;;;;;;29.97;25.53;;;;;;;12.53;100.00;95897.56;5010407;28;104603;-61
2022/09/25 05:59:44;;;;;;;29.83;26.37;;;;;;;12.53;100.00;95889.56;5008294;28;102014;-61
2022/09/25 06:02:11;;;;;;;28.90;24.47;;;;;;;12.62;100.00;95885.25;5006639;28;105405;-61
2022/09/25 06:04:38;;;;;;;33.27;27.27;;;;;;;12.71;100.00;95883.59;5007480;28;101869;-61
2022/09/25 06:07:05;;;;;;;36.77;29.43;;;;;;;12.77;100.00;95885.97;5007377;28;105037;-61
2022/09/25 06:09:33;;;;;;;34.70;28.73;;;;;;;12.84;100.00;95877.66;5006981;28;104475;-61
2022/09/25 06:12:02;;;;;;;36.70;30.13;;;;;;;12.93;100.00;95876.00;5007166;28;102198;-61
2022/09/25 06:14:29;;;;;;;37.00;29.87;;;;;;;12.94;100.00;95875.72;5007469;28;105020;-61
2022/09/25 06:16:56;;;;;;;29.73;25.13;;;;;;;12.98;100.00;95868.78;5006689;28;104161;-61
2022/09/25 06:19:23;;;;;;;30.17;25.30;;;;;;;13.04;100.00;95869.53;5010868;28;101847;-61
2022/09/25 06:21:50;;;;;;;31.60;26.33;;;;;;;13.03;100.00;95874.06;5006779;28;105023;-61
2022/09/25 06:24:17;;;;;;;30.13;25.30;;;;;;;13.04;100.00;95872.22;5008685;28;101986;-61
2022/09/25 06:26:46;;;;;;;29.00;25.07;;;;;;;13.06;100.00;95870.06;5007078;28;103491;-61
2022/09/25 06:29:13;;;;;;;29.30;23.83;;;;;;;13.06;100.00;95873.53;5008231;28;103100;-61
2022/09/25 06:31:40;;;;;;;26.77;23.87;;;;;;;12.92;100.00;95874.41;5007132;28;101973;-61
2022/09/25 06:34:11;;;;;;;25.33;22.63;;;;;;;12.94;100.00;95886.41;5008699;28;102254;-61
2022/09/25 06:36:38;;;;;;;25.87;23.17;;;;;;;12.84;100.00;95883.78;5006663;28;105706;-61
2022/09/25 06:39:05;;;;;;;23.67;21.17;;;;;;;12.89;100.00;95883.75;5010180;28;101886;-61
2022/09/25 06:41:32;;;;;;;21.57;19.27;;;;;;;12.82;100.00;95885.13;5014446;28;103243;-61
2022/09/25 06:44:04;;;;;;;21.03;18.83;;;;;;;12.89;100.00;95885.63;5010456;28;102033;-61
2022/09/25 06:46:31;;;;;;;21.10;18.93;;;;;;;12.81;100.00;95903.00;5010507;28;105037;-61
2022/09/25 06:48:57;;;;;;;21.43;19.23;;;;;;;12.85;100.00;95895.25;5009904;28;105141;-61
2022/09/25 06:51:31;;;;;;;20.83;18.77;;;;;;;12.91;100.00;95904.84;5010502;28;101981;-61
2022/09/25 06:53:58;;;;;;;20.30;18.10;;;;;;;12.98;100.00;95914.16;5009904;28;105156;-61
2022/09/25 06:56:25;;;;;;;19.17;17.17;;;;;;;13.02;100.00;95909.06;5009801;28;105624;-61
2022/09/25 06:58:52;;;;;;;20.93;18.83;;;;;;;13.05;100.00;95906.66;5010361;28;101870;-61
2022/09/25 07:01:21;;;;;;;20.53;18.43;;;;;;;12.91;100.00;95899.50;5009952;28;105598;-61
2022/09/25 07:03:48;;;;;;;19.33;17.53;;;;;;;12.89;100.00;95904.31;5013348;28;104784;-61
2022/09/25 07:06:16;;;;;;;18.97;16.90;;;;;;;12.98;100.00;95903.47;5009925;28;104971;-61
2022/09/25 07:08:45;;;;;;;19.57;17.63;;;;;;;12.96;100.00;95918.16;5009884;28;105808;-61
2022/09/25 07:11:14;;;;;;;19.50;17.50;;;;;;;12.95;100.00;95906.69;5009901;28;102657;-61
2022/09/25 07:13:42;;;;;;;20.43;18.33;;;;;;;13.02;100.00;95898.41;5011237;28;102555;-61
2022/09/25 07:16:13;;;;;;;20.50;18.40;;;;;;;13.01;100.00;95896.78;5009432;28;105457;-61
2022/09/25 07:18:42;;;;;;;18.57;16.67;;;;;;;13.10;100.00;95897.78;5010022;28;101878;-61
2022/09/25 07:21:12;;;;;;;19.40;17.60;;;;;;;13.16;100.00;95892.16;5009902;28;105386;-61
2022/09/25 07:23:40;;;;;;;20.33;18.23;;;;;;;13.19;100.00;95886.25;5009231;28;105684;-61
2022/09/25 07:26:09;;;;;;;18.87;17.07;;;;;;;13.27;100.00;95882.19;5013017;28;101908;-61
2022/09/25 07:28:36;;;;;;;21.20;19.00;;;;;;;13.20;100.00;95884.38;5009452;28;105502;-61
2022/09/25 07:31:14;;;;;;;21.87;19.67;;;;;;;13.20;100.00;95892.38;5009627;28;102145;-61
2022/09/25 07:33:43;;;;;;;21.80;19.63;;;;;;;13.24;100.00;95885.44;5010020;28;105108;-61
2022/09/25 07:36:10;;;;;;;21.20;19.07;;;;;;;13.25;100.00;95887.78;5009008;28;105151;-58
2022/09/25 07:38:38;;;;;;;19.20;17.27;;;;;;;13.32;100.00;95884.81;5009444;28;102006;-58
2022/09/25 07:41:06;;;;;;;20.97;18.97;;;;;;;13.41;100.00;95885.81;5009415;28;105097;-57
2022/09/25 07:43:34;;;;;;;22.57;20.17;;;;;;;13.55;100.00;95884.09;5009065;28;105153;-58
2022/09/25 07:46:01;;;;;;;20.10;18.20;;;;;;;13.54;100.00;95883.31;5012969;28;101897;-50
2022/09/25 07:48:30;;;;;;;20.33;18.33;;;;;;;13.65;100.00;95892.00;5008532;28;103909;-63
2022/09/25 07:51:01;;;;;;;20.17;18.27;;;;;;;13.59;100.00;95885.94;5008800;28;101912;-58
2022/09/25 07:53:29;;;;;;;18.57;16.73;;;;;;;13.61;100.00;95893.63;5008603;28;106009;-55
2022/09/25 07:55:58;;;;;;;18.87;17.10;;;;;;;13.50;100.00;95898.28;5009070;28;105380;-57
2022/09/25 07:58:26;;;;;;;18.47;16.73;;;;;;;13.61;100.00;95889.09;5009330;28;102032;-57
2022/09/25 08:00:54;;;;;;;19.23;17.43;;;;;;;13.66;100.00;95890.94;5008949;28;103653;-54
2022/09/25 08:03:21;;;;;;;18.70;16.80;;;;;;;13.77;100.00;95881.72;5008856;28;104057;-57
2022/09/25 08:05:48;;;;;;;18.10;16.40;;;;;;;13.87;100.00;95876.28;5026148;28;102033;-56
2022/09/25 08:08:16;;;;;;;17.87;16.17;;;;;;;13.89;100.00;95877.59;5013678;28;101771;-56
2022/09/25 08:10:43;;;;;;;19.47;17.47;;;;;;;14.00;100.00;95872.97;5009096;28;101920;-57
2022/09/25 08:13:10;;;;;;;17.37;15.67;;;;;;;14.10;100.00;95884.34;5009183;28;104975;-56
2022/09/25 08:15:37;;;;;;;17.80;16.20;;;;;;;14.17;100.00;95882.09;5008520;28;105538;-57
2022/09/25 08:18:04;;;;;;;18.37;16.67;;;;;;;14.18;100.00;95882.91;5009091;28;101893;-57
2022/09/25 08:20:31;;;;;;;19.93;17.83;;;;;;;14.18;100.00;95888.25;5009048;28;103931;-57
2022/09/25 08:22:58;;;;;;;18.97;17.17;;;;;;;14.26;100.00;95895.69;5008271;28;105048;-55
2022/09/25 08:25:27;;;;;;;19.30;17.53;;;;;;;14.37;100.00;95894.47;5008749;28;102070;-56
2022/09/25 08:27:54;;;;;;;18.70;17.00;;;;;;;14.31;100.00;95890.28;5008885;28;105598;-57
2022/09/25 08:30:21;;;;;;;18.97;17.07;;;;;;;14.26;100.00;95888.47;5023714;28;105264;-57
2022/09/25 08:32:51;;;;;;;20.13;18.23;;;;;;;14.21;100.00;95890.38;5028778;28;105138;-58
2022/09/25 08:35:18;;;;;;;18.37;16.67;;;;;;;13.98;100.00;95883.94;5028064;28;104014;-57
2022/09/25 08:37:45;;;;;;;17.47;15.77;;;;;;;13.86;100.00;95880.84;5028585;28;101849;-57
2022/09/25 08:40:18;;;;;;;17.90;16.20;;;;;;;13.90;100.00;95887.22;5028988;28;104496;-58
2022/09/25 08:42:50;;;;;;;17.47;15.83;;;;;;;13.93;100.00;95880.50;5028126;28;104038;-55
2022/09/25 08:51:05;;;;;;;17.70;16.03;;;;;;;14.43;100.00;95871.94;5027934;28;104347;-57
2022/09/25 08:53:35;;;;;;;18.80;17.10;;;;;;;14.39;100.00;95870.94;5022444;28;102572;-57
2022/09/25 08:56:23;;;;;;;16.60;15.07;;;;;;;14.38;100.00;95866.66;5017472;28;103951;-56
2022/09/25 08:58:56;;;;;;;16.87;15.27;;;;;;;14.60;100.00;95877.63;5004665;28;102134;-57
2022/09/25 09:01:26;;;;;;;17.67;16.07;;;;;;;14.59;100.00;95865.31;5026423;27;104936;-57
2022/09/25 09:04:01;;;;;;;17.10;15.60;;;;;;;14.67;100.00;95867.34;5028163;28;105625;-58
2022/09/25 09:06:30;;;;;;;16.30;14.80;;;;;;;14.80;100.00;95869.31;5025099;28;101866;-58
2022/09/25 09:09:04;;;;;;;17.63;15.83;;;;;;;14.54;100.00;95865.38;5018129;28;104951;-58
2022/09/25 09:11:36;;;;;;;17.13;15.63;;;;;;;14.49;100.00;95868.13;5012756;28;105655;-58
2022/09/25 09:14:07;;;;;;;16.87;15.30;;;;;;;14.72;100.00;95868.06;5008320;28;101782;-58
2022/09/25 09:16:39;;;;;;;15.77;14.37;;;;;;;14.91;100.00;95865.41;5012683;28;102337;-58
2022/09/25 09:19:07;;;;;;;16.47;14.93;;;;;;;15.06;100.00;95862.50;5010798;28;101920;-58
2022/09/25 09:21:37;;;;;;;17.97;16.37;;;;;;;15.11;100.00;95871.28;5001190;28;105034;-59
2022/09/25 09:24:14;;;;;;;17.33;15.57;;;;;;;15.05;100.00;95867.06;5019526;28;102612;-59
2022/09/25 09:26:56;;;;;;;16.50;15.00;;;;;;;15.19;100.00;95869.78;5018614;28;102072;-60
2022/09/25 09:29:40;;;;;;;17.13;15.63;;;;;;;15.28;100.00;95866.19;5009605;28;102506;-61
2022/09/25 09:32:24;;;;;;;17.07;15.47;;;;;;;14.94;100.00;95864.84;5007269;28;105006;-61
2022/09/25 09:35:02;;;;;;;16.67;15.17;;;;;;;14.84;100.00;95859.63;5007620;28;101789;-60
2022/09/25 09:37:43;;;;;;;16.17;14.67;;;;;;;14.73;100.00;95860.84;5007840;28;105204;-62
2022/09/25 09:40:23;;;;;;;15.67;14.13;;;;;;;14.77;100.00;95864.53;5023243;28;102901;-59
2022/09/25 09:43:02;;;;;;;17.70;16.17;;;;;;;14.79;100.00;95862.38;5013070;28;105235;-58
2022/09/25 09:45:40;;;;;;;16.67;15.17;;;;;;;14.73;100.00;95858.97;5007408;28;106359;-59
2022/09/25 09:48:16;;;;;;;16.40;14.90;;;;;;;14.84;100.00;95859.63;5009146;28;101767;-59
2022/09/25 09:50:47;;;;;;;16.50;15.00;;;;;;;14.94;100.00;95859.47;5007546;28;102469;-59
2022/09/25 09:53:26;;;;;;;15.80;14.40;;;;;;;15.20;100.00;95852.66;5026179;27;105546;-59
2022/09/25 09:55:59;;;;;;;15.63;14.23;;;;;;;15.32;100.00;95850.31;5012915;28;101950;-59
2022/09/25 09:58:31;;;;;;;15.40;14.10;;;;;;;15.36;100.00;95848.69;5007760;28;103803;-59
2022/09/25 10:01:01;;;;;;;15.53;14.13;;;;;;;15.45;100.00;95844.22;5011777;28;102716;-59
2022/09/25 10:03:30;;;;;;;17.10;15.40;;;;;;;15.44;100.00;95842.66;5007532;28;105412;-59
2022/09/25 10:05:59;;;;;;;16.00;14.60;;;;;;;15.47;100.00;95839.38;5008419;28;102651;-59
2022/09/25 10:08:27;;;;;;;16.50;15.00;;;;;;;15.44;100.00;95839.97;5007675;28;102081;-59
2022/09/25 10:10:54;;;;;;;16.40;14.70;;;;;;;15.48;100.00;95838.28;5007466;28;105155;-59
2022/09/25 10:13:25;;;;;;;15.73;14.37;;;;;;;15.67;100.00;95839.81;5008809;28;103780;-59
2022/09/25 10:15:57;;;;;;;16.03;14.63;;;;;;;15.50;100.00;95833.44;5011003;28;101885;-59
2022/09/25 10:18:31;;;;;;;17.17;15.57;;;;;;;15.78;100.00;95840.44;5011009;28;105437;-59
2022/09/25 10:21:04;;;;;;;15.83;14.23;;;;;;;15.68;100.00;95833.38;5010258;28;103955;-59
2022/09/25 10:23:38;;;;;;;15.97;14.47;;;;;;;15.75;100.00;95828.41;5015686;28;101738;-59
2022/09/25 10:26:23;;;;;;;14.63;13.37;;;;;;;15.53;100.00;95830.94;5010195;28;104179;-59
2022/09/25 10:28:51;;;;;;;15.90;14.43;;;;;;;15.87;100.00;95827.94;5011860;28;101798;-59
2022/09/25 10:31:19;;;;;;;15.80;14.23;;;;;;;16.20;100.00;95829.44;5011999;28;102272;-59
2022/09/25 10:34:01;;;;;;;14.47;13.17;;;;;;;16.10;100.00;95825.06;5010115;28;105586;-59
2022/09/25 10:36:34;;;;;;;13.87;12.67;;;;;;;16.26;100.00;95818.31;5011950;28;101809;-59
2022/09/25 10:39:03;;;;;;;14.57;13.17;;;;;;;16.62;100.00;95826.44;5010694;28;103568;-59
2022/09/25 10:41:31;;;;;;;14.73;13.23;;;;;;;16.46;100.00;95812.53;5011473;28;102827;-59
2022/09/25 10:44:00;;;;;;;13.40;12.30;;;;;;;16.46;100.00;95812.53;5010175;28;101956;-59
2022/09/25 10:52:06;;;;;;;12.87;11.73;;;;;;;16.98;100.00;95821.84;5010188;28;104059;-59
2022/09/25 10:54:34;;;;;;;11.23;10.17;;;;;;;16.98;100.00;95816.47;5009374;28;105738;-59
2022/09/25 10:57:16;;;;;;;13.07;11.77;;;;;;;16.93;100.00;95819.28;5010182;28;102218;-59
2022/09/25 10:59:48;;;;;;;11.27;10.33;;;;;;;16.55;100.00;95823.34;5010347;28;105684;-59
2022/09/25 11:02:30;;;;;;;11.83;10.63;;;;;;;16.58;100.00;95822.78;5009575;28;105209;-59
2022/09/25 11:04:59;;;;;;;11.43;10.53;;;;;;;16.62;100.00;95823.75;5020940;28;102112;-59
2022/09/25 11:07:27;;;;;;;11.03;10.13;;;;;;;16.74;100.00;95829.41;5020030;28;102291;-59
2022/09/25 11:09:55;;;;;;;13.43;12.27;;;;;;;16.88;100.00;95820.19;5027473;28;105286;-59
2022/09/25 11:12:25;;;;;;;12.27;11.27;;;;;;;17.01;100.00;95818.56;5023475;28;104959;-59
2022/09/25 11:14:57;;;;;;;11.37;10.17;;;;;;;17.11;100.00;95816.44;5014469;28;105877;-59
2022/09/25 11:17:33;;;;;;;10.50;9.60;;;;;;;16.65;100.00;95810.53;5009989;28;101875;-59
2022/09/25 11:20:21;;;;;;;10.80;9.90;;;;;;;16.75;100.00;95815.69;5012745;28;104232;-59
2022/09/25 11:22:54;;;;;;;11.83;10.77;;;;;;;16.91;100.00;95814.25;5021102;28;105220;-59
2022/09/25 11:25:26;;;;;;;11.40;10.30;;;;;;;17.18;100.00;95808.75;5030109;28;102022;-59
2022/09/25 11:27:58;;;;;;;11.50;10.50;;;;;;;16.31;100.00;95804.00;5029754;28;104857;-59
2022/09/25 11:30:27;;;;;;;11.77;10.67;;;;;;;16.37;100.00;95800.09;5022205;28;103964;-59
2022/09/25 11:33:01;;;;;;;10.20;9.40;;;;;;;16.78;100.00;95793.56;5013218;28;101881;-59
2022/09/25 11:35:41;;;;;;;9.80;8.97;;;;;;;16.80;100.00;95785.22;5009932;28;106599;-59